createdAt,value
2019-03-30T00:00:30.631Z,941.8
2019-03-30T00:01:30.522Z,943.3
2019-03-30T00:02:30.881Z,943.3
2019-03-30T00:03:30.806Z,943.3
2019-03-30T00:04:30.541Z,943.2
2019-03-30T00:05:30.293Z,943.3
2019-03-30T00:06:30.015Z,943.3
2019-03-30T00:07:29.733Z,943.2
2019-03-30T00:08:29.508Z,943.3
2019-03-30T00:09:29.229Z,943.3
2019-03-30T00:10:28.954Z,943.2
2019-03-30T00:11:28.685Z,943.3
2019-03-30T00:12:28.997Z,943.3
2019-03-30T00:13:28.901Z,943.4
2019-03-30T00:14:28.900Z,943.3
2019-03-30T00:15:28.778Z,943.2
2019-03-30T00:16:28.657Z,943.3
2019-03-30T00:17:28.523Z,943.2
2019-03-30T00:18:28.409Z,943.3
2019-03-30T00:19:36.033Z,943.3
2019-03-30T00:20:35.948Z,943.3
2019-03-30T00:21:35.841Z,943.3
2019-03-30T00:22:36.224Z,943.3
2019-03-30T00:23:36.101Z,943.1
2019-03-30T00:24:36.009Z,943.2
2019-03-30T00:25:35.896Z,943.3
2019-03-30T00:26:35.780Z,943.2
2019-03-30T00:27:35.746Z,943.2
2019-03-30T00:28:35.625Z,943.3
2019-03-30T00:29:35.503Z,943.3
2019-03-30T00:30:35.382Z,943.2
2019-03-30T00:31:35.281Z,943.2
2019-03-30T00:32:35.604Z,943.2
2019-03-30T00:33:35.502Z,943.1
2019-03-30T00:34:35.399Z,943.2
2019-03-30T00:35:35.291Z,943.2
2019-03-30T00:36:35.177Z,942.6
2019-03-30T00:37:35.059Z,943.2
2019-03-30T00:38:34.932Z,943.1
2019-03-30T00:39:34.828Z,943.1
2019-03-30T00:40:34.734Z,943.1
2019-03-30T00:41:34.614Z,943.1
2019-03-30T00:42:34.936Z,943.1
2019-03-30T00:43:34.878Z,943
2019-03-30T00:44:34.782Z,943.1
2019-03-30T00:45:34.684Z,943
2019-03-30T00:46:34.592Z,943.1
2019-03-30T00:47:34.476Z,943
2019-03-30T00:48:34.352Z,943.1
2019-03-30T00:49:50.083Z,942.9
2019-03-30T00:50:50.070Z,943
2019-03-30T00:51:49.977Z,943
2019-03-30T00:52:50.294Z,943
2019-03-30T00:53:50.178Z,943.1
2019-03-30T00:54:50.088Z,943.1
2019-03-30T00:55:49.978Z,943
2019-03-30T00:56:49.875Z,943.1
2019-03-30T00:57:49.758Z,943
2019-03-30T00:58:49.649Z,942.9
2019-03-30T00:59:49.592Z,943
2019-03-30T01:00:49.537Z,943
2019-03-30T01:01:49.783Z,942.5
2019-03-30T01:02:50.127Z,943
2019-03-30T01:03:50.021Z,943.1
2019-03-30T01:04:49.739Z,943
2019-03-30T01:05:49.648Z,943
2019-03-30T01:06:49.392Z,942.9
2019-03-30T01:07:49.127Z,943
2019-03-30T01:08:48.856Z,943
2019-03-30T01:09:48.596Z,943
2019-03-30T01:10:48.332Z,943
2019-03-30T01:11:48.066Z,943
2019-03-30T01:12:48.373Z,943.1
2019-03-30T01:13:48.258Z,943
2019-03-30T01:14:48.204Z,943
2019-03-30T01:15:48.121Z,942.9
2019-03-30T01:16:48.139Z,943
2019-03-30T01:17:48.036Z,942.9
2019-03-30T01:18:48.018Z,943
2019-03-30T01:20:01.811Z,942.9
2019-03-30T01:21:02.093Z,942.9
2019-03-30T01:22:01.991Z,942.9
2019-03-30T01:23:02.311Z,943
2019-03-30T01:24:02.218Z,942.9
2019-03-30T01:25:02.124Z,943
2019-03-30T01:26:01.878Z,942.9
2019-03-30T01:27:01.758Z,943
2019-03-30T01:28:01.476Z,943
2019-03-30T01:29:01.206Z,943
2019-03-30T01:30:00.922Z,943
2019-03-30T01:31:00.678Z,943
2019-03-30T01:32:00.402Z,943
2019-03-30T01:33:00.706Z,943
2019-03-30T01:34:00.622Z,942.9
2019-03-30T01:35:00.901Z,941.6
2019-03-30T01:36:00.800Z,943
2019-03-30T01:37:00.694Z,943
2019-03-30T01:38:00.574Z,942.9
2019-03-30T01:39:00.444Z,943
2019-03-30T01:40:00.623Z,942.9
2019-03-30T01:41:00.514Z,943
2019-03-30T01:42:00.410Z,942.9
2019-03-30T01:43:00.754Z,942.9
2019-03-30T01:44:00.640Z,942.9
2019-03-30T01:45:00.561Z,942.8
2019-03-30T01:46:00.437Z,942.8
2019-03-30T01:47:00.327Z,942.8
2019-03-30T01:48:00.220Z,942.8
2019-03-30T01:49:00.122Z,942.7
2019-03-30T01:50:00.030Z,942.9
2019-03-30T01:50:59.923Z,942.7
2019-03-30T01:51:59.808Z,942.9
2019-03-30T01:53:00.142Z,942.7
2019-03-30T01:54:00.043Z,942.8
2019-03-30T01:54:59.984Z,942.9
2019-03-30T01:55:59.861Z,942.8
2019-03-30T01:56:59.741Z,942.9
2019-03-30T01:57:59.652Z,942.9
2019-03-30T01:58:59.521Z,942.8
2019-03-30T01:59:59.416Z,942.9
2019-03-30T02:00:59.306Z,942.9
2019-03-30T02:01:59.176Z,942.7
2019-03-30T02:02:59.524Z,942.8
2019-03-30T02:03:59.404Z,942.7
2019-03-30T02:04:59.287Z,942.9
2019-03-30T02:05:59.166Z,942.9
2019-03-30T02:06:59.072Z,942.9
2019-03-30T02:07:58.970Z,942.9
2019-03-30T02:08:58.866Z,942.9
2019-03-30T02:09:58.759Z,942.9
2019-03-30T02:10:58.643Z,942.9
2019-03-30T02:11:58.526Z,942.9
2019-03-30T02:12:58.831Z,942.9
2019-03-30T02:13:58.734Z,942.9
2019-03-30T02:14:58.645Z,942.8
2019-03-30T02:15:58.530Z,942.9
2019-03-30T02:16:58.418Z,942.9
2019-03-30T02:17:58.308Z,942.9
2019-03-30T02:18:58.272Z,942.8
2019-03-30T02:19:58.164Z,942.9
2019-03-30T02:20:58.024Z,943
2019-03-30T02:21:58.017Z,942.9
2019-03-30T02:22:58.376Z,942.9
2019-03-30T02:23:58.270Z,942.9
2019-03-30T02:24:58.227Z,942.2
2019-03-30T02:25:58.200Z,942.8
2019-03-30T02:26:58.083Z,942.9
2019-03-30T02:27:57.957Z,942.9
2019-03-30T02:28:57.878Z,942.9
2019-03-30T02:29:57.759Z,942.9
2019-03-30T02:30:57.671Z,942.9
2019-03-30T02:31:57.619Z,942.9
2019-03-30T02:32:57.982Z,942.7
2019-03-30T02:33:57.933Z,942.9
2019-03-30T02:34:57.854Z,942.8
2019-03-30T02:35:57.596Z,942.8
2019-03-30T02:36:57.341Z,942.9
2019-03-30T02:37:57.194Z,942.8
2019-03-30T02:38:57.068Z,942.9
2019-03-30T02:39:56.995Z,942.9
2019-03-30T02:40:56.740Z,942.8
2019-03-30T02:41:56.476Z,942.8
2019-03-30T02:42:56.637Z,942.8
2019-03-30T02:43:56.404Z,942.7
2019-03-30T02:44:56.157Z,942.7
2019-03-30T02:45:55.913Z,942.8
2019-03-30T02:46:55.651Z,942.7
2019-03-30T02:47:55.447Z,942.8
2019-03-30T02:48:55.209Z,942.6
2019-03-30T02:49:54.945Z,942.7
2019-03-30T02:50:54.704Z,942.6
2019-03-30T02:51:54.603Z,942.6
2019-03-30T02:52:54.951Z,942.7
2019-03-30T02:53:54.914Z,942.8
2019-03-30T02:54:54.824Z,942.8
2019-03-30T02:55:54.714Z,942.7
2019-03-30T02:56:54.646Z,942.6
2019-03-30T02:57:54.573Z,942.7
2019-03-30T02:58:54.453Z,942.5
2019-03-30T02:59:54.397Z,942.8
2019-03-30T03:00:54.297Z,942.7
2019-03-30T03:01:54.388Z,942.3
2019-03-30T03:02:54.829Z,942.8
2019-03-30T03:03:54.725Z,942.7
2019-03-30T03:04:54.608Z,942.6
2019-03-30T03:05:54.604Z,942.6
2019-03-30T03:06:54.553Z,942.7
2019-03-30T03:07:54.466Z,942.7
2019-03-30T03:08:54.338Z,942.7
2019-03-30T03:09:54.337Z,941.8
2019-03-30T03:10:54.250Z,942.7
2019-03-30T03:11:54.211Z,942.7
2019-03-30T03:12:54.586Z,942.6
2019-03-30T03:13:54.523Z,942.7
2019-03-30T03:14:54.425Z,942.8
2019-03-30T03:15:54.321Z,942.7
2019-03-30T03:16:54.285Z,942.7
2019-03-30T03:17:54.191Z,942.7
2019-03-30T03:18:54.078Z,942.7
2019-03-30T03:19:54.018Z,942.8
2019-03-30T03:21:09.551Z,942.6
2019-03-30T03:22:09.460Z,941.1
2019-03-30T03:23:09.906Z,942.7
2019-03-30T03:24:09.810Z,942.8
2019-03-30T03:25:09.746Z,942.8
2019-03-30T03:26:09.492Z,942.7
2019-03-30T03:27:09.243Z,942.7
2019-03-30T03:28:08.995Z,942
2019-03-30T03:29:08.778Z,942.6
2019-03-30T03:30:08.722Z,942.6
2019-03-30T03:31:08.524Z,942.7
2019-03-30T03:32:08.328Z,942.7
2019-03-30T03:33:08.781Z,942.7
2019-03-30T03:34:08.837Z,942.7
2019-03-30T03:35:08.779Z,942.7
2019-03-30T03:36:08.716Z,942.7
2019-03-30T03:37:08.620Z,942.6
2019-03-30T03:38:08.556Z,942.7
2019-03-30T03:39:08.461Z,942.7
2019-03-30T03:40:08.404Z,942.7
2019-03-30T03:41:08.431Z,942.6
2019-03-30T03:42:08.342Z,942.7
2019-03-30T03:43:08.731Z,942.6
2019-03-30T03:44:08.634Z,942.6
2019-03-30T03:45:08.547Z,942.7
2019-03-30T03:46:08.298Z,941.3
2019-03-30T03:47:08.060Z,942.6
2019-03-30T03:48:07.828Z,942.6
2019-03-30T03:49:07.563Z,942.6
2019-03-30T03:50:07.301Z,942.6
2019-03-30T03:51:27.270Z,942.5
2019-03-30T03:52:27.023Z,942.6
2019-03-30T03:53:27.224Z,942.6
2019-03-30T03:54:26.995Z,942.6
2019-03-30T03:55:26.720Z,942.6
2019-03-30T03:56:26.448Z,942.5
2019-03-30T03:57:26.227Z,942.6
2019-03-30T03:58:25.968Z,942.6
2019-03-30T03:59:25.750Z,942.6
2019-03-30T04:00:25.480Z,942.5
2019-03-30T04:01:25.473Z,942.6
2019-03-30T04:02:25.188Z,942.6
2019-03-30T04:03:25.410Z,942.7
2019-03-30T04:04:25.163Z,942.6
2019-03-30T04:05:24.901Z,942.4
2019-03-30T04:06:24.648Z,942.6
2019-03-30T04:07:24.569Z,942.6
2019-03-30T04:08:24.291Z,942.5
2019-03-30T04:09:24.142Z,942.5
2019-03-30T04:10:24.037Z,942.7
2019-03-30T04:11:23.950Z,942.6
2019-03-30T04:12:23.928Z,942.5
2019-03-30T04:13:24.326Z,942.6
2019-03-30T04:14:24.223Z,942.6
2019-03-30T04:15:24.144Z,942.4
2019-03-30T04:16:24.067Z,942.6
2019-03-30T04:17:24.006Z,942.5
2019-03-30T04:18:23.898Z,942.6
2019-03-30T04:19:23.880Z,942.6
2019-03-30T04:20:23.806Z,942.6
2019-03-30T04:21:23.747Z,942.6
2019-03-30T04:22:23.670Z,942.7
2019-03-30T04:23:24.032Z,942.7
2019-03-30T04:24:23.965Z,942.7
2019-03-30T04:25:23.947Z,942.7
2019-03-30T04:26:23.853Z,942.7
2019-03-30T04:27:23.773Z,942.6
2019-03-30T04:28:23.729Z,942.6
2019-03-30T04:29:23.653Z,942.6
2019-03-30T04:30:23.570Z,942.6
2019-03-30T04:31:23.478Z,942.6
2019-03-30T04:32:23.521Z,942.7
2019-03-30T04:33:23.856Z,942.5
2019-03-30T04:34:23.752Z,942.5
2019-03-30T04:35:23.682Z,942.5
2019-03-30T04:36:23.437Z,942.6
2019-03-30T04:37:23.187Z,942.5
2019-03-30T04:38:22.922Z,942.6
2019-03-30T04:39:22.640Z,942.6
2019-03-30T04:40:22.377Z,942.6
2019-03-30T04:41:22.123Z,942.5
2019-03-30T04:42:21.875Z,942.5
2019-03-30T04:43:22.184Z,942.5
2019-03-30T04:44:22.066Z,942.6
2019-03-30T04:45:22.003Z,941.4
2019-03-30T04:46:21.975Z,942.7
2019-03-30T04:47:21.869Z,942.7
2019-03-30T04:48:21.767Z,942.7
2019-03-30T04:49:21.669Z,942.6
2019-03-30T04:50:21.569Z,942.6
2019-03-30T04:51:21.478Z,942.7
2019-03-30T04:52:21.342Z,942.7
2019-03-30T04:53:21.652Z,942
2019-03-30T04:54:21.545Z,942.5
2019-03-30T04:55:21.434Z,942.7
2019-03-30T04:56:21.360Z,942.7
2019-03-30T04:57:21.234Z,942.7
2019-03-30T04:58:21.202Z,942.7
2019-03-30T04:59:21.082Z,942.3
2019-03-30T05:00:20.974Z,941.8
2019-03-30T05:01:20.864Z,942.6
2019-03-30T05:02:20.766Z,942.6
2019-03-30T05:03:21.067Z,942.8
2019-03-30T05:04:20.963Z,942.8
2019-03-30T05:05:20.851Z,942.7
2019-03-30T05:06:20.742Z,942.8
2019-03-30T05:07:20.639Z,942.8
2019-03-30T05:08:20.522Z,942.9
2019-03-30T05:09:20.416Z,942.7
2019-03-30T05:10:20.307Z,942.9
2019-03-30T05:11:20.204Z,942.9
2019-03-30T05:12:20.137Z,942.9
2019-03-30T05:13:21.795Z,942.8
2019-03-30T05:14:21.789Z,943
2019-03-30T05:15:21.679Z,942.8
2019-03-30T05:16:21.573Z,943
2019-03-30T05:17:21.514Z,943
2019-03-30T05:18:21.416Z,943
2019-03-30T05:19:21.306Z,942.2
2019-03-30T05:20:21.201Z,943
2019-03-30T05:21:21.077Z,943.2
2019-03-30T05:22:20.976Z,943.1
2019-03-30T05:23:21.745Z,941.7
2019-03-30T05:24:21.646Z,943
2019-03-30T05:25:21.403Z,943.2
2019-03-30T05:26:21.289Z,943.2
2019-03-30T05:27:21.019Z,943.3
2019-03-30T05:28:20.742Z,943
2019-03-30T05:29:20.475Z,943.3
2019-03-30T05:30:20.208Z,943.2
2019-03-30T05:31:19.927Z,943.2
2019-03-30T05:32:19.691Z,943.1
2019-03-30T05:33:36.531Z,943.3
2019-03-30T05:34:36.267Z,943.2
2019-03-30T05:35:35.983Z,943.2
2019-03-30T05:36:35.708Z,943.3
2019-03-30T05:37:35.433Z,943.3
2019-03-30T05:38:35.395Z,943.2
2019-03-30T05:39:35.120Z,943.3
2019-03-30T05:40:34.858Z,943.1
2019-03-30T05:41:34.755Z,943.1
2019-03-30T05:42:34.656Z,943.2
2019-03-30T05:43:34.968Z,943.1
2019-03-30T05:44:34.851Z,943.2
2019-03-30T05:45:34.785Z,943.1
2019-03-30T05:46:34.671Z,943.2
2019-03-30T05:47:34.546Z,943.2
2019-03-30T05:48:34.451Z,943.3
2019-03-30T05:49:34.350Z,943.3
2019-03-30T05:50:34.242Z,943.3
2019-03-30T05:51:34.131Z,943.4
2019-03-30T05:52:36.589Z,943.4
2019-03-30T05:53:37.040Z,943.5
2019-03-30T05:54:36.928Z,943.4
2019-03-30T05:55:36.883Z,943.5
2019-03-30T05:56:36.597Z,943.3
2019-03-30T05:57:36.481Z,943.4
2019-03-30T05:58:36.251Z,943.5
2019-03-30T05:59:35.967Z,943.4
2019-03-30T06:00:35.699Z,943.3
2019-03-30T06:01:35.421Z,943.3
2019-03-30T06:02:35.313Z,943.2
2019-03-30T06:03:35.651Z,943.3
2019-03-30T06:04:35.387Z,943.3
2019-03-30T06:05:35.117Z,943.4
2019-03-30T06:06:34.995Z,943.4
2019-03-30T06:07:34.887Z,943.3
2019-03-30T06:08:34.622Z,943.3
2019-03-30T06:09:34.349Z,943.3
2019-03-30T06:10:34.251Z,943.3
2019-03-30T06:11:34.135Z,943.2
2019-03-30T06:12:34.056Z,943.4
2019-03-30T06:13:34.419Z,943.4
2019-03-30T06:14:34.407Z,943.4
2019-03-30T06:15:34.287Z,943.3
2019-03-30T06:16:34.193Z,943.4
2019-03-30T06:17:34.087Z,943.4
2019-03-30T06:18:33.996Z,943.4
2019-03-30T06:19:33.995Z,943.5
2019-03-30T06:20:33.926Z,943.4
2019-03-30T06:21:33.835Z,943.5
2019-03-30T06:22:41.677Z,943.5
2019-03-30T06:23:42.021Z,943.4
2019-03-30T06:24:41.913Z,943.3
2019-03-30T06:25:41.805Z,943.3
2019-03-30T06:26:41.721Z,943.3
2019-03-30T06:27:41.603Z,943.4
2019-03-30T06:28:41.502Z,943.5
2019-03-30T06:29:41.367Z,943.3
2019-03-30T06:30:41.281Z,943.3
2019-03-30T06:31:41.153Z,943.4
2019-03-30T06:32:41.044Z,943.3
2019-03-30T06:33:41.350Z,943.3
2019-03-30T06:34:41.255Z,943.4
2019-03-30T06:35:41.176Z,943.3
2019-03-30T06:36:41.053Z,943.3
2019-03-30T06:37:40.986Z,943.4
2019-03-30T06:38:40.913Z,943.4
2019-03-30T06:39:40.809Z,943.4
2019-03-30T06:40:40.709Z,943.4
2019-03-30T06:41:40.639Z,943.4
2019-03-30T06:42:40.521Z,943.4
2019-03-30T06:43:40.878Z,943.3
2019-03-30T06:44:40.781Z,943.4
2019-03-30T06:45:40.694Z,943.4
2019-03-30T06:46:40.706Z,943.4
2019-03-30T06:47:40.617Z,943.3
2019-03-30T06:48:40.529Z,943.2
2019-03-30T06:49:40.480Z,943.4
2019-03-30T06:50:40.424Z,943.4
2019-03-30T06:51:40.342Z,943.4
2019-03-30T06:52:59.354Z,943.4
2019-03-30T06:53:59.675Z,943.3
2019-03-30T06:54:59.592Z,943.4
2019-03-30T06:55:59.534Z,943.3
2019-03-30T06:56:59.439Z,943.4
2019-03-30T06:57:59.336Z,943.3
2019-03-30T06:58:59.266Z,943.5
2019-03-30T06:59:59.185Z,943.4
2019-03-30T07:00:59.083Z,943.4
2019-03-30T07:01:58.982Z,943.4
2019-03-30T07:02:58.861Z,943.3
2019-03-30T07:03:59.186Z,942.8
2019-03-30T07:04:59.082Z,943.3
2019-03-30T07:05:59.033Z,943.3
2019-03-30T07:06:58.904Z,943.4
2019-03-30T07:07:58.803Z,943.3
2019-03-30T07:08:58.698Z,943.3
2019-03-30T07:09:58.583Z,943.4
2019-03-30T07:10:59.539Z,943.4
2019-03-30T07:11:59.440Z,943.3
2019-03-30T07:12:59.324Z,943.5
2019-03-30T07:13:59.640Z,943.4
2019-03-30T07:14:59.534Z,943.5
2019-03-30T07:15:59.444Z,943.4
2019-03-30T07:17:02.653Z,942.4
2019-03-30T07:18:02.604Z,943.4
2019-03-30T07:19:02.504Z,943.4
2019-03-30T07:20:02.404Z,943.4
2019-03-30T07:21:02.322Z,943.4
2019-03-30T07:22:02.303Z,943.4
2019-03-30T07:23:13.537Z,943.3
2019-03-30T07:24:13.854Z,943.2
2019-03-30T07:25:13.750Z,943.2
2019-03-30T07:26:13.650Z,943.2
2019-03-30T07:27:13.566Z,943.2
2019-03-30T07:28:13.463Z,943.3
2019-03-30T07:29:13.372Z,943.2
2019-03-30T07:30:13.248Z,943.4
2019-03-30T07:31:13.145Z,943.3
2019-03-30T07:32:13.046Z,943.3
2019-03-30T07:33:12.949Z,943.3
2019-03-30T07:34:13.246Z,943.2
2019-03-30T07:35:13.165Z,943.2
2019-03-30T07:36:13.062Z,943.3
2019-03-30T07:37:12.960Z,943.3
2019-03-30T07:38:12.845Z,943.3
2019-03-30T07:39:12.846Z,943.3
2019-03-30T07:40:12.726Z,943.2
2019-03-30T07:41:12.640Z,943.2
2019-03-30T07:42:12.566Z,943.3
2019-03-30T07:43:12.449Z,943.2
2019-03-30T07:44:12.856Z,943.2
2019-03-30T07:45:12.726Z,943.3
2019-03-30T07:46:12.625Z,943.3
2019-03-30T07:47:12.531Z,943.2
2019-03-30T07:48:12.438Z,943.4
2019-03-30T07:49:12.325Z,943.3
2019-03-30T07:50:12.217Z,943.4
2019-03-30T07:51:12.096Z,943.3
2019-03-30T07:52:11.980Z,943.3
2019-03-30T07:53:27.792Z,943.4
2019-03-30T07:54:28.190Z,943.3
2019-03-30T07:55:28.083Z,943.4
2019-03-30T07:56:28.074Z,943.3
2019-03-30T07:57:27.981Z,943.3
2019-03-30T07:58:28.000Z,943.4
2019-03-30T07:59:27.901Z,943.3
2019-03-30T08:00:31.848Z,943.3
2019-03-30T08:01:31.734Z,942.8
2019-03-30T08:02:31.605Z,943.2
2019-03-30T08:03:31.506Z,943.2
2019-03-30T08:04:31.868Z,942.7
2019-03-30T08:05:31.772Z,943.2
2019-03-30T08:06:31.654Z,943.2
2019-03-30T08:07:31.540Z,943.2
2019-03-30T08:08:31.440Z,943.2
2019-03-30T08:09:31.350Z,943.2
2019-03-30T08:10:31.324Z,943.2
2019-03-30T08:11:33.988Z,943.3
2019-03-30T08:12:33.910Z,943.3
2019-03-30T08:13:33.849Z,943.2
2019-03-30T08:14:34.155Z,943.2
2019-03-30T08:15:34.058Z,943.2
2019-03-30T08:16:33.947Z,943.2
2019-03-30T08:17:33.837Z,943.3
2019-03-30T08:18:33.735Z,943.3
2019-03-30T08:19:33.639Z,943.3
2019-03-30T08:20:33.539Z,943.2
2019-03-30T08:21:33.434Z,943.3
2019-03-30T08:22:33.320Z,943.2
2019-03-30T08:23:41.647Z,943.2
2019-03-30T08:24:41.997Z,943.2
2019-03-30T08:25:41.894Z,943.2
2019-03-30T08:26:41.809Z,943.2
2019-03-30T08:27:41.716Z,943.2
2019-03-30T08:28:41.626Z,943.2
2019-03-30T08:29:41.531Z,943.2
2019-03-30T08:30:41.443Z,943
2019-03-30T08:31:41.384Z,943.1
2019-03-30T08:32:41.260Z,943.2
2019-03-30T08:33:41.157Z,943
2019-03-30T08:34:41.478Z,943
2019-03-30T08:35:41.492Z,943.1
2019-03-30T08:36:41.413Z,943.2
2019-03-30T08:37:41.717Z,943.1
2019-03-30T08:38:41.624Z,943.1
2019-03-30T08:39:41.508Z,943
2019-03-30T08:40:41.426Z,943.1
2019-03-30T08:41:41.383Z,943.1
2019-03-30T08:42:41.308Z,943
2019-03-30T08:43:41.221Z,942.9
2019-03-30T08:44:41.540Z,943
2019-03-30T08:45:41.462Z,942.9
2019-03-30T08:46:41.346Z,943
2019-03-30T08:47:41.338Z,943
2019-03-30T08:48:41.342Z,943
2019-03-30T08:49:41.234Z,943
2019-03-30T08:50:41.155Z,943.1
2019-03-30T08:51:41.045Z,943.1
2019-03-30T08:52:40.955Z,943.1
2019-03-30T08:53:55.776Z,943.2
2019-03-30T08:54:56.102Z,943.1
2019-03-30T08:55:56.060Z,943.1
2019-03-30T08:56:55.943Z,943.1
2019-03-30T08:57:55.843Z,943.1
2019-03-30T08:58:55.805Z,943.1
2019-03-30T08:59:55.710Z,943.1
2019-03-30T09:00:55.603Z,943
2019-03-30T09:01:55.525Z,943.1
2019-03-30T09:02:55.399Z,943
2019-03-30T09:03:55.287Z,943
2019-03-30T09:04:55.615Z,942.8
2019-03-30T09:05:55.517Z,942.8
2019-03-30T09:06:55.406Z,942.8
2019-03-30T09:07:55.324Z,942.8
2019-03-30T09:08:55.223Z,942.9
2019-03-30T09:09:55.149Z,942.5
2019-03-30T09:10:55.033Z,942.8
2019-03-30T09:11:54.943Z,942.8
2019-03-30T09:12:54.849Z,942.8
2019-03-30T09:13:54.735Z,942.9
2019-03-30T09:14:55.053Z,942.8
2019-03-30T09:15:54.941Z,942.8
2019-03-30T09:16:54.828Z,942.9
2019-03-30T09:17:54.732Z,942.8
2019-03-30T09:18:54.623Z,942.8
2019-03-30T09:19:54.509Z,942.8
2019-03-30T09:20:54.389Z,942.8
2019-03-30T09:21:54.267Z,942.8
2019-03-30T09:22:54.183Z,942.8
2019-03-30T09:24:10.779Z,942.8
2019-03-30T09:25:11.243Z,942.7
2019-03-30T09:26:11.119Z,942.7
2019-03-30T09:27:10.995Z,942.7
2019-03-30T09:28:10.903Z,942.7
2019-03-30T09:29:10.813Z,942.7
2019-03-30T09:30:10.747Z,942.7
2019-03-30T09:31:10.619Z,942.7
2019-03-30T09:32:15.853Z,942.7
2019-03-30T09:33:15.781Z,942.1
2019-03-30T09:34:15.689Z,942.5
2019-03-30T09:35:16.001Z,942.6
2019-03-30T09:36:15.931Z,942.6
2019-03-30T09:37:15.819Z,942.6
2019-03-30T09:38:16.032Z,942.6
2019-03-30T09:39:15.926Z,941.7
2019-03-30T09:40:15.826Z,942.5
2019-03-30T09:41:15.724Z,942.5
2019-03-30T09:42:16.360Z,942.6
2019-03-30T09:43:16.255Z,942.5
2019-03-30T09:44:16.160Z,942.5
2019-03-30T09:45:16.483Z,942.6
2019-03-30T09:46:16.363Z,942.5
2019-03-30T09:47:16.263Z,942.5
2019-03-30T09:48:16.219Z,942.5
2019-03-30T09:49:16.151Z,942.5
2019-03-30T09:50:16.044Z,942.5
2019-03-30T09:51:15.927Z,942.5
2019-03-30T09:52:15.830Z,942.6
2019-03-30T09:53:15.731Z,942.6
2019-03-30T09:54:25.009Z,942.5
2019-03-30T09:55:28.386Z,942.6
2019-03-30T09:56:28.407Z,942.6
2019-03-30T09:57:28.301Z,942.5
2019-03-30T09:58:28.179Z,942.5
2019-03-30T09:59:28.109Z,942.5
2019-03-30T10:00:27.984Z,942.4
2019-03-30T10:01:27.891Z,942.5
2019-03-30T10:02:27.771Z,942.4
2019-03-30T10:03:27.668Z,942.4
2019-03-30T10:04:27.577Z,942.5
2019-03-30T10:05:27.913Z,942.4
2019-03-30T10:06:35.619Z,942.3
2019-03-30T10:07:36.267Z,942.3
2019-03-30T10:08:36.156Z,942.3
2019-03-30T10:09:36.046Z,942.4
2019-03-30T10:10:38.986Z,942.4
2019-03-30T10:11:38.904Z,942.4
2019-03-30T10:12:38.785Z,942.3
2019-03-30T10:13:38.672Z,942.2
2019-03-30T10:14:38.644Z,942.3
2019-03-30T10:15:38.979Z,942.3
2019-03-30T10:16:38.880Z,942.3
2019-03-30T10:17:38.780Z,942.3
2019-03-30T10:18:38.677Z,942.4
2019-03-30T10:19:38.589Z,942.3
2019-03-30T10:20:38.503Z,942.3
2019-03-30T10:21:38.616Z,942.3
2019-03-30T10:22:42.605Z,941
2019-03-30T10:23:42.501Z,942.2
2019-03-30T10:24:42.609Z,942.2
2019-03-30T10:25:42.936Z,942.1
2019-03-30T10:26:42.915Z,942.2
2019-03-30T10:27:42.797Z,942.2
2019-03-30T10:28:42.744Z,942.2
2019-03-30T10:29:42.686Z,942
2019-03-30T10:30:42.616Z,941.6
2019-03-30T10:31:42.511Z,942.1
2019-03-30T10:32:42.399Z,942
2019-03-30T10:33:42.313Z,942
2019-03-30T10:34:42.211Z,942.1
2019-03-30T10:35:42.522Z,942
2019-03-30T10:36:42.416Z,941.9
2019-03-30T10:37:42.334Z,940.8
2019-03-30T10:38:42.227Z,941.9
2019-03-30T10:39:42.114Z,942
2019-03-30T10:40:42.012Z,942
2019-03-30T10:41:41.930Z,942
2019-03-30T10:42:41.817Z,942
2019-03-30T10:43:41.717Z,942.1
2019-03-30T10:44:41.635Z,942
2019-03-30T10:45:42.002Z,942.1
2019-03-30T10:46:41.970Z,942.1
2019-03-30T10:47:41.857Z,942.1
2019-03-30T10:48:41.746Z,942.1
2019-03-30T10:49:41.644Z,942
2019-03-30T10:50:41.549Z,942
2019-03-30T10:51:41.477Z,942
2019-03-30T10:52:41.359Z,942
2019-03-30T10:53:41.240Z,942
2019-03-30T10:54:54.040Z,942
2019-03-30T10:55:54.362Z,942
2019-03-30T10:56:54.275Z,942
2019-03-30T10:57:54.166Z,942
2019-03-30T10:58:54.090Z,941.9
2019-03-30T10:59:53.985Z,941.9
2019-03-30T11:00:53.876Z,941.9
2019-03-30T11:01:53.810Z,941.9
2019-03-30T11:02:53.696Z,941.9
2019-03-30T11:03:53.652Z,941.9
2019-03-30T11:04:53.555Z,941.9
2019-03-30T11:05:53.867Z,941.8
2019-03-30T11:06:53.736Z,941.8
2019-03-30T11:07:53.730Z,941.9
2019-03-30T11:08:53.639Z,941.8
2019-03-30T11:09:53.550Z,941.8
2019-03-30T11:10:53.547Z,941.9
2019-03-30T11:11:53.434Z,941.5
2019-03-30T11:12:53.320Z,941.6
2019-03-30T11:13:53.213Z,941.8
2019-03-30T11:14:53.186Z,941.8
2019-03-30T11:15:53.510Z,941.8
2019-03-30T11:16:53.395Z,941.8
2019-03-30T11:17:53.302Z,941.7
2019-03-30T11:18:53.229Z,941.8
2019-03-30T11:19:53.153Z,941.5
2019-03-30T11:20:53.130Z,941.7
2019-03-30T11:21:53.033Z,941.7
2019-03-30T11:22:52.950Z,941.7
2019-03-30T11:23:52.842Z,941.7
2019-03-30T11:25:09.622Z,941.7
2019-03-30T11:26:09.956Z,941.7
2019-03-30T11:27:09.916Z,941.7
2019-03-30T11:28:09.850Z,941.6
2019-03-30T11:29:09.736Z,941.7
2019-03-30T11:30:09.627Z,941.2
2019-03-30T11:31:09.601Z,941.6
2019-03-30T11:32:09.478Z,941.6
2019-03-30T11:33:09.440Z,941.4
2019-03-30T11:34:09.350Z,941.5
2019-03-30T11:35:09.262Z,941.5
2019-03-30T11:36:09.562Z,941.5
2019-03-30T11:37:09.430Z,941.4
2019-03-30T11:38:09.324Z,941.4
2019-03-30T11:39:09.214Z,941.5
2019-03-30T11:40:09.234Z,941.4
2019-03-30T11:41:09.126Z,941.4
2019-03-30T11:42:09.001Z,941.4
2019-03-30T11:43:08.882Z,941.3
2019-03-30T11:44:08.788Z,941.2
2019-03-30T11:45:08.679Z,941.4
2019-03-30T11:46:09.026Z,941
2019-03-30T11:47:08.913Z,941.4
2019-03-30T11:48:08.814Z,941.3
2019-03-30T11:49:08.724Z,941.4
2019-03-30T11:50:08.628Z,941.3
2019-03-30T11:51:08.512Z,941.3
2019-03-30T11:52:08.389Z,941.3
2019-03-30T11:53:08.366Z,941.3
2019-03-30T11:54:08.598Z,941.3
2019-03-30T11:55:23.237Z,941.3
2019-03-30T11:56:23.698Z,941.3
2019-03-30T11:57:23.615Z,941.2
2019-03-30T11:58:23.514Z,941.2
2019-03-30T11:59:23.487Z,941.2
2019-03-30T12:00:23.395Z,941.3
2019-03-30T12:01:23.299Z,941.2
2019-03-30T12:02:29.281Z,941
2019-03-30T12:03:29.167Z,941.2
2019-03-30T12:04:29.100Z,941
2019-03-30T12:05:28.984Z,941.2
2019-03-30T12:06:29.292Z,941.1
2019-03-30T12:07:29.168Z,941.1
2019-03-30T12:08:29.065Z,941.1
2019-03-30T12:09:28.984Z,941.2
2019-03-30T12:10:28.895Z,941.1
2019-03-30T12:11:28.788Z,941.2
2019-03-30T12:12:28.661Z,941.1
2019-03-30T12:13:28.542Z,941
2019-03-30T12:14:28.422Z,941.1
2019-03-30T12:15:28.314Z,941
2019-03-30T12:16:28.634Z,941.1
2019-03-30T12:17:28.528Z,941.1
2019-03-30T12:18:28.421Z,941.1
2019-03-30T12:19:28.305Z,941
2019-03-30T12:20:28.217Z,941
2019-03-30T12:21:28.129Z,941
2019-03-30T12:22:27.996Z,940.9
2019-03-30T12:23:27.893Z,940.9
2019-03-30T12:24:27.773Z,941
2019-03-30T12:25:36.978Z,940.9
2019-03-30T12:26:37.359Z,941
2019-03-30T12:27:37.248Z,940.8
2019-03-30T12:28:37.139Z,940.9
2019-03-30T12:29:37.020Z,941
2019-03-30T12:30:37.008Z,940.9
2019-03-30T12:31:36.908Z,941
2019-03-30T12:32:36.835Z,940.9
2019-03-30T12:33:36.796Z,940.9
2019-03-30T12:34:36.692Z,940.8
2019-03-30T12:35:36.582Z,940.7
2019-03-30T12:36:36.916Z,940.8
2019-03-30T12:37:36.805Z,940.7
2019-03-30T12:38:36.692Z,940.8
2019-03-30T12:39:36.593Z,940.8
2019-03-30T12:40:36.466Z,940.8
2019-03-30T12:41:36.384Z,940.8
2019-03-30T12:42:36.302Z,940.7
2019-03-30T12:43:39.911Z,940.6
2019-03-30T12:44:39.831Z,940.7
2019-03-30T12:45:39.751Z,940.8
2019-03-30T12:46:40.082Z,940.8
2019-03-30T12:47:39.989Z,940.7
2019-03-30T12:48:39.934Z,940.8
2019-03-30T12:49:39.865Z,940.6
2019-03-30T12:50:39.769Z,939.6
2019-03-30T12:51:39.689Z,940.7
2019-03-30T12:52:39.608Z,940.7
2019-03-30T12:53:51.539Z,940.7
2019-03-30T12:54:51.447Z,940.7
2019-03-30T12:55:51.371Z,940.5
2019-03-30T12:56:51.731Z,940.7
2019-03-30T12:57:51.616Z,940.7
2019-03-30T12:58:51.527Z,940.6
2019-03-30T12:59:51.405Z,940
2019-03-30T13:00:51.315Z,939.4
2019-03-30T13:01:51.225Z,940.5
2019-03-30T13:02:51.153Z,940.6